RU-0310 weather

CLOSED Sal'sk Airfield
Sal'sk, Rostov Oblast, Russia

Public forecast

Using degrees Celsius for public forecast. Weather courtesy of forecast.io.

METAR (pilot weather report)

Closest report is Stavropol Shpakovskoye Airport, 82.3 nm (152.4 km) SSE. Retrieved 2019/08/18 06:30 UTC (10 minutes ago):

URMT 180630Z 35003MPS CAVOK 23/17 Q1011 R25/010070 NOSIG RMK QFE719

TAF (pilot weather forecast)

Forecast is more than 12 hours old.

Closest forecast is Stavropol Shpakovskoye Airport, 82.3 nm (152.4 km) SSE. Retrieved 2019/08/03 03:15 UTC (15 days ago):

TAF URMT 030200Z 0303/0321 31005G12MPS 9999 SCT020